sensor_id;sensor_type;location;lat;lon;timestamp;temperature;humidity
21928;DHT22;11128;51.096;17.190;2023-10-13T00:00:17;15.90;1.00
21928;DHT22;11128;51.096;17.190;2023-10-13T00:05:31;15.80;1.00
21928;DHT22;11128;51.096;17.190;2023-10-13T00:10:33;15.80;1.00
21928;DHT22;11128;51.096;17.190;2023-10-13T00:15:45;15.80;1.00
21928;DHT22;11128;51.096;17.190;2023-10-13T00:20:59;15.80;1.00
21928;DHT22;11128;51.096;17.190;2023-10-13T00:26:00;15.70;1.00
21928;DHT22;11128;51.096;17.190;2023-10-13T00:31:03;15.70;1.00
21928;DHT22;11128;51.096;17.190;2023-10-13T00:36:17;15.70;1.00
21928;DHT22;11128;51.096;17.190;2023-10-13T00:41:20;15.70;1.00
21928;DHT22;11128;51.096;17.190;2023-10-13T00:46:37;15.70;1.00
21928;DHT22;11128;51.096;17.190;2023-10-13T00:51:40;15.60;1.00
21928;DHT22;11128;51.096;17.190;2023-10-13T00:56:48;15.60;24.00
21928;DHT22;11128;51.096;17.190;2023-10-13T01:01:54;15.50;1.00
21928;DHT22;11128;51.096;17.190;2023-10-13T01:06:56;15.50;14.30
21928;DHT22;11128;51.096;17.190;2023-10-13T01:11:58;15.40;99.90
21928;DHT22;11128;51.096;17.190;2023-10-13T01:17:02;15.30;99.90
21928;DHT22;11128;51.096;17.190;2023-10-13T01:22:04;15.30;99.90
21928;DHT22;11128;51.096;17.190;2023-10-13T01:27:08;15.30;21.50
21928;DHT22;11128;51.096;17.190;2023-10-13T01:32:19;15.40;1.00
21928;DHT22;11128;51.096;17.190;2023-10-13T01:37:21;15.30;99.90
21928;DHT22;11128;51.096;17.190;2023-10-13T01:42:23;15.30;1.00
21928;DHT22;11128;51.096;17.190;2023-10-13T01:47:25;15.30;1.00
21928;DHT22;11128;51.096;17.190;2023-10-13T01:52:29;15.30;1.00
21928;DHT22;11128;51.096;17.190;2023-10-13T01:57:30;15.30;10.10
21928;DHT22;11128;51.096;17.190;2023-10-13T02:02:33;15.30;99.90
21928;DHT22;11128;51.096;17.190;2023-10-13T02:07:35;15.20;99.90
21928;DHT22;11128;51.096;17.190;2023-10-13T02:12:39;15.20;99.90
21928;DHT22;11128;51.096;17.190;2023-10-13T02:17:43;15.20;99.90
21928;DHT22;11128;51.096;17.190;2023-10-13T02:22:46;15.10;99.90
21928;DHT22;11128;51.096;17.190;2023-10-13T02:27:50;15.20;99.90
21928;DHT22;11128;51.096;17.190;2023-10-13T02:32:59;15.10;99.90
21928;DHT22;11128;51.096;17.190;2023-10-13T02:38:07;15.20;1.00
21928;DHT22;11128;51.096;17.190;2023-10-13T02:43:12;15.20;1.00
21928;DHT22;11128;51.096;17.190;2023-10-13T02:48:15;15.20;99.90
21928;DHT22;11128;51.096;17.190;2023-10-13T02:53:19;15.20;1.00
21928;DHT22;11128;51.096;17.190;2023-10-13T02:58:20;15.10;99.90
21928;DHT22;11128;51.096;17.190;2023-10-13T03:03:22;15.10;1.00
21928;DHT22;11128;51.096;17.190;2023-10-13T03:08:23;15.00;1.00
21928;DHT22;11128;51.096;17.190;2023-10-13T03:13:28;14.90;1.00
21928;DHT22;11128;51.096;17.190;2023-10-13T03:18:29;14.90;1.00
21928;DHT22;11128;51.096;17.190;2023-10-13T03:23:34;14.90;1.00
21928;DHT22;11128;51.096;17.190;2023-10-13T03:28:47;14.90;99.90
21928;DHT22;11128;51.096;17.190;2023-10-13T03:33:53;14.80;1.00
21928;DHT22;11128;51.096;17.190;2023-10-13T03:39:00;14.90;1.00
21928;DHT22;11128;51.096;17.190;2023-10-13T03:44:01;14.80;16.40
21928;DHT22;11128;51.096;17.190;2023-10-13T03:49:18;14.80;1.00
21928;DHT22;11128;51.096;17.190;2023-10-13T03:54:22;14.70;1.00
21928;DHT22;11128;51.096;17.190;2023-10-13T03:59:24;14.70;1.00
21928;DHT22;11128;51.096;17.190;2023-10-13T04:04:25;14.70;1.00
21928;DHT22;11128;51.096;17.190;2023-10-13T04:09:39;14.70;1.00
21928;DHT22;11128;51.096;17.190;2023-10-13T04:14:43;14.60;99.90
21928;DHT22;11128;51.096;17.190;2023-10-13T04:19:57;14.60;1.00
21928;DHT22;11128;51.096;17.190;2023-10-13T04:25:08;14.60;99.90
21928;DHT22;11128;51.096;17.190;2023-10-13T04:30:29;14.60;1.00
21928;DHT22;11128;51.096;17.190;2023-10-13T04:35:48;14.70;99.90
21928;DHT22;11128;51.096;17.190;2023-10-13T04:40:59;14.70;55.90
21928;DHT22;11128;51.096;17.190;2023-10-13T04:46:02;14.70;96.70
21928;DHT22;11128;51.096;17.190;2023-10-13T04:51:26;14.70;1.00
21928;DHT22;11128;51.096;17.190;2023-10-13T04:56:51;14.70;1.00
21928;DHT22;11128;51.096;17.190;2023-10-13T05:02:15;14.70;1.00
21928;DHT22;11128;51.096;17.190;2023-10-13T05:07:35;14.70;9.50
21928;DHT22;11128;51.096;17.190;2023-10-13T05:12:55;14.80;1.00
21928;DHT22;11128;51.096;17.190;2023-10-13T05:18:15;14.80;1.00
21928;DHT22;11128;51.096;17.190;2023-10-13T05:23:36;14.80;1.00
21928;DHT22;11128;51.096;17.190;2023-10-13T05:28:56;14.90;1.00
21928;DHT22;11128;51.096;17.190;2023-10-13T05:34:19;14.90;99.90
21928;DHT22;11128;51.096;17.190;2023-10-13T05:39:39;14.90;1.00
21928;DHT22;11128;51.096;17.190;2023-10-13T05:45:07;14.90;91.50
21928;DHT22;11128;51.096;17.190;2023-10-13T05:50:26;14.90;99.90
21928;DHT22;11128;51.096;17.190;2023-10-13T05:55:30;15.00;99.90
21928;DHT22;11128;51.096;17.190;2023-10-13T06:00:50;15.00;1.00
21928;DHT22;11128;51.096;17.190;2023-10-13T06:06:10;15.00;99.90
21928;DHT22;11128;51.096;17.190;2023-10-13T06:11:30;15.10;99.90
21928;DHT22;11128;51.096;17.190;2023-10-13T06:16:50;15.10;1.00
21928;DHT22;11128;51.096;17.190;2023-10-13T06:22:10;15.10;99.90
21928;DHT22;11128;51.096;17.190;2023-10-13T06:27:30;15.20;1.00
21928;DHT22;11128;51.096;17.190;2023-10-13T06:32:50;15.30;99.90
21928;DHT22;11128;51.096;17.190;2023-10-13T06:37:52;15.40;1.00
21928;DHT22;11128;51.096;17.190;2023-10-13T06:42:54;15.40;99.90
21928;DHT22;11128;51.096;17.190;2023-10-13T06:48:08;15.50;99.90
21928;DHT22;11128;51.096;17.190;2023-10-13T06:53:15;15.60;94.40
21928;DHT22;11128;51.096;17.190;2023-10-13T06:58:17;15.80;99.90
21928;DHT22;11128;51.096;17.190;2023-10-13T07:03:19;15.90;99.90
21928;DHT22;11128;51.096;17.190;2023-10-13T07:08:21;16.00;99.90
21928;DHT22;11128;51.096;17.190;2023-10-13T07:13:22;16.20;1.00
21928;DHT22;11128;51.096;17.190;2023-10-13T07:18:28;16.40;1.00
21928;DHT22;11128;51.096;17.190;2023-10-13T07:23:38;16.60;99.90
21928;DHT22;11128;51.096;17.190;2023-10-13T07:28:39;16.80;99.90
21928;DHT22;11128;51.096;17.190;2023-10-13T07:33:44;16.90;99.90
21928;DHT22;11128;51.096;17.190;2023-10-13T07:38:46;17.10;99.90
21928;DHT22;11128;51.096;17.190;2023-10-13T07:43:49;17.30;1.00
21928;DHT22;11128;51.096;17.190;2023-10-13T07:48:51;17.50;1.00
21928;DHT22;11128;51.096;17.190;2023-10-13T07:53:54;17.60;99.90
21928;DHT22;11128;51.096;17.190;2023-10-13T07:58:55;17.80;99.90
21928;DHT22;11128;51.096;17.190;2023-10-13T08:04:07;18.00;1.00
21928;DHT22;11128;51.096;17.190;2023-10-13T08:09:15;18.20;1.00
21928;DHT22;11128;51.096;17.190;2023-10-13T08:14:31;18.40;1.00
21928;DHT22;11128;51.096;17.190;2023-10-13T08:19:34;18.60;99.90
21928;DHT22;11128;51.096;17.190;2023-10-13T08:24:49;18.90;54.50
21928;DHT22;11128;51.096;17.190;2023-10-13T08:29:51;19.10;1.00
21928;DHT22;11128;51.096;17.190;2023-10-13T08:34:59;19.40;1.00
21928;DHT22;11128;51.096;17.190;2023-10-13T08:40:04;19.70;1.00
21928;DHT22;11128;51.096;17.190;2023-10-13T08:45:13;20.00;99.90
21928;DHT22;11128;51.096;17.190;2023-10-13T08:50:24;20.20;1.00
21928;DHT22;11128;51.096;17.190;2023-10-13T08:55:43;20.30;1.00
21928;DHT22;11128;51.096;17.190;2023-10-13T09:01:03;20.60;1.00
21928;DHT22;11128;51.096;17.190;2023-10-13T09:06:18;20.90;1.00
21928;DHT22;11128;51.096;17.190;2023-10-13T09:11:20;21.00;1.00
21928;DHT22;11128;51.096;17.190;2023-10-13T16:08:53;20.10;99.90
21928;DHT22;11128;51.096;17.190;2023-10-13T16:13:57;20.10;99.90
21928;DHT22;11128;51.096;17.190;2023-10-13T16:18:58;20.10;99.90
21928;DHT22;11128;51.096;17.190;2023-10-13T16:23:59;20.00;99.90
21928;DHT22;11128;51.096;17.190;2023-10-13T16:29:01;20.00;99.90
21928;DHT22;11128;51.096;17.190;2023-10-13T16:34:02;19.90;1.00
21928;DHT22;11128;51.096;17.190;2023-10-13T16:39:06;19.90;1.00
21928;DHT22;11128;51.096;17.190;2023-10-13T16:44:09;19.80;1.00
21928;DHT22;11128;51.096;17.190;2023-10-13T16:49:10;19.80;1.00
21928;DHT22;11128;51.096;17.190;2023-10-13T16:54:12;19.70;1.00
21928;DHT22;11128;51.096;17.190;2023-10-13T16:59:13;19.60;1.00
21928;DHT22;11128;51.096;17.190;2023-10-13T17:04:15;19.50;1.00
21928;DHT22;11128;51.096;17.190;2023-10-13T17:09:20;19.50;1.00
21928;DHT22;11128;51.096;17.190;2023-10-13T17:14:21;19.40;1.00
21928;DHT22;11128;51.096;17.190;2023-10-13T17:19:23;19.40;1.00
21928;DHT22;11128;51.096;17.190;2023-10-13T17:24:24;19.40;1.00
21928;DHT22;11128;51.096;17.190;2023-10-13T17:29:30;19.40;1.00
21928;DHT22;11128;51.096;17.190;2023-10-13T17:34:31;19.40;1.00
21928;DHT22;11128;51.096;17.190;2023-10-13T17:39:33;19.40;1.00
21928;DHT22;11128;51.096;17.190;2023-10-13T17:44:34;19.30;1.00
21928;DHT22;11128;51.096;17.190;2023-10-13T17:49:36;19.30;1.00
21928;DHT22;11128;51.096;17.190;2023-10-13T17:54:41;19.20;1.00
21928;DHT22;11128;51.096;17.190;2023-10-13T17:59:43;19.10;1.00
21928;DHT22;11128;51.096;17.190;2023-10-13T18:04:47;19.10;1.00
21928;DHT22;11128;51.096;17.190;2023-10-13T18:09:49;19.10;1.00
21928;DHT22;11128;51.096;17.190;2023-10-13T18:14:50;19.10;1.00
21928;DHT22;11128;51.096;17.190;2023-10-13T18:19:58;19.10;1.00
21928;DHT22;11128;51.096;17.190;2023-10-13T18:25:00;19.10;1.00
21928;DHT22;11128;51.096;17.190;2023-10-13T18:30:01;19.00;1.00
21928;DHT22;11128;51.096;17.190;2023-10-13T18:35:04;19.00;1.00
21928;DHT22;11128;51.096;17.190;2023-10-13T18:40:13;19.00;99.90
21928;DHT22;11128;51.096;17.190;2023-10-13T18:45:18;19.00;99.90
21928;DHT22;11128;51.096;17.190;2023-10-13T18:50:22;18.90;99.90
21928;DHT22;11128;51.096;17.190;2023-10-13T18:55:28;18.90;99.90
21928;DHT22;11128;51.096;17.190;2023-10-13T19:00:31;18.80;1.00
21928;DHT22;11128;51.096;17.190;2023-10-13T19:05:34;18.80;1.00
21928;DHT22;11128;51.096;17.190;2023-10-13T19:10:36;18.80;1.00
21928;DHT22;11128;51.096;17.190;2023-10-13T19:15:38;18.70;1.00
21928;DHT22;11128;51.096;17.190;2023-10-13T19:20:40;18.70;1.00
21928;DHT22;11128;51.096;17.190;2023-10-13T19:25:41;18.60;1.00
21928;DHT22;11128;51.096;17.190;2023-10-13T19:30:45;18.60;1.00
21928;DHT22;11128;51.096;17.190;2023-10-13T19:35:46;18.60;99.90
21928;DHT22;11128;51.096;17.190;2023-10-13T19:40:51;18.60;99.90
21928;DHT22;11128;51.096;17.190;2023-10-13T19:45:53;18.70;47.70
21928;DHT22;11128;51.096;17.190;2023-10-13T19:50:54;18.80;13.10
21928;DHT22;11128;51.096;17.190;2023-10-13T19:55:56;18.90;1.00
21928;DHT22;11128;51.096;17.190;2023-10-13T20:01:09;18.90;1.00
21928;DHT22;11128;51.096;17.190;2023-10-13T20:06:12;19.00;1.00
21928;DHT22;11128;51.096;17.190;2023-10-13T20:11:16;19.10;1.00
21928;DHT22;11128;51.096;17.190;2023-10-13T20:16:19;19.10;1.00
21928;DHT22;11128;51.096;17.190;2023-10-13T20:21:30;19.10;1.00
21928;DHT22;11128;51.096;17.190;2023-10-13T20:26:33;19.00;1.00
21928;DHT22;11128;51.096;17.190;2023-10-13T20:36:45;19.10;1.00
21928;DHT22;11128;51.096;17.190;2023-10-13T20:41:47;19.00;1.00
21928;DHT22;11128;51.096;17.190;2023-10-13T20:46:50;19.10;1.00
21928;DHT22;11128;51.096;17.190;2023-10-13T20:51:51;19.10;1.00
21928;DHT22;11128;51.096;17.190;2023-10-13T20:56:53;19.10;99.90
21928;DHT22;11128;51.096;17.190;2023-10-13T21:01:55;19.20;99.90
21928;DHT22;11128;51.096;17.190;2023-10-13T21:06:58;19.20;99.90
21928;DHT22;11128;51.096;17.190;2023-10-13T21:11:59;19.20;99.90
21928;DHT22;11128;51.096;17.190;2023-10-13T21:17:05;19.30;99.90
21928;DHT22;11128;51.096;17.190;2023-10-13T21:22:09;19.40;99.90
21928;DHT22;11128;51.096;17.190;2023-10-13T21:27:11;19.40;99.90
21928;DHT22;11128;51.096;17.190;2023-10-13T21:32:12;19.60;99.90
21928;DHT22;11128;51.096;17.190;2023-10-13T21:37:14;19.70;99.90
21928;DHT22;11128;51.096;17.190;2023-10-13T21:42:17;19.70;99.90
21928;DHT22;11128;51.096;17.190;2023-10-13T21:47:19;19.60;99.90
21928;DHT22;11128;51.096;17.190;2023-10-13T21:52:20;19.50;99.90
21928;DHT22;11128;51.096;17.190;2023-10-13T21:57:22;19.40;99.90
21928;DHT22;11128;51.096;17.190;2023-10-13T22:02:24;19.30;99.90
21928;DHT22;11128;51.096;17.190;2023-10-13T22:07:25;19.10;99.90
21928;DHT22;11128;51.096;17.190;2023-10-13T22:12:26;19.00;1.00
21928;DHT22;11128;51.096;17.190;2023-10-13T22:17:32;18.90;1.00
21928;DHT22;11128;51.096;17.190;2023-10-13T22:22:34;18.60;1.00
21928;DHT22;11128;51.096;17.190;2023-10-13T22:27:38;18.50;1.00
21928;DHT22;11128;51.096;17.190;2023-10-13T22:32:40;18.40;1.00
21928;DHT22;11128;51.096;17.190;2023-10-13T22:37:43;18.40;99.90
21928;DHT22;11128;51.096;17.190;2023-10-13T22:42:47;18.40;99.90
21928;DHT22;11128;51.096;17.190;2023-10-13T22:47:50;18.40;99.90
21928;DHT22;11128;51.096;17.190;2023-10-13T22:52:52;18.40;99.90
21928;DHT22;11128;51.096;17.190;2023-10-13T22:57:56;18.40;99.90
21928;DHT22;11128;51.096;17.190;2023-10-13T23:02:58;18.30;99.90
21928;DHT22;11128;51.096;17.190;2023-10-13T23:07:59;18.30;99.90
21928;DHT22;11128;51.096;17.190;2023-10-13T23:13:20;18.30;99.90
21928;DHT22;11128;51.096;17.190;2023-10-13T23:18:22;18.40;99.90
21928;DHT22;11128;51.096;17.190;2023-10-13T23:23:24;18.40;99.90
21928;DHT22;11128;51.096;17.190;2023-10-13T23:28:26;18.40;99.90
21928;DHT22;11128;51.096;17.190;2023-10-13T23:33:27;18.40;99.90
21928;DHT22;11128;51.096;17.190;2023-10-13T23:38:29;18.40;99.90
21928;DHT22;11128;51.096;17.190;2023-10-13T23:43:35;18.30;99.90
21928;DHT22;11128;51.096;17.190;2023-10-13T23:48:45;18.30;1.00
21928;DHT22;11128;51.096;17.190;2023-10-13T23:53:48;18.20;1.00
21928;DHT22;11128;51.096;17.190;2023-10-13T23:58:49;18.20;1.00
